Granted Patents



NoApplication NoTitle Of The InnovationPatent NoGrant DateFirst Page
1 GC 2009-15005 Method of removing carbon dioxide from a fluid stream and fluid separation assembly GC0011997 2022/12/04 HTML
2 GC 2010-15420 Recovery of CO2 in a process for synthesis of methanol GC0011996 2022/12/04 HTML
3 GC 2016-32134 IDENTIFICATION OF PRODUCTS GC0011995 2022/12/04 HTML
4 GC 2017-34289 POLYETHYLENE COMPOSITION FOR BLOW MOLDING HAVING HIGH STRESS CRACKING RESISTANCE GC0011994 2022/12/04 HTML
5 GC 2017-33238 VANADIUM CORROSION INHIBITORS IN GAS TURBINE APPLICATIONS GC0011993 2022/12/04 HTML
6 GC 2018-34869 SEPARATING A FUEL ON-BOARD A VEHICLE GC0011992 2022/12/04 HTML
7 GC 2017-33461 APPARATUSES AND METHODS FOR SENSING TEMPERATURE ALONG A WELLBORE USING RESISTIVE ELEMENTS GC0011991 2022/12/04 HTML
8 GC 2016-32553 THREADED JOINT FOR STEEL PIPE GC0011990 2022/12/04 HTML
9 GC 2015-28852 ALKYL TIN COMPOUNDS GC0011989 2022/12/01 HTML
10 GC 2007-9160 PROCESS FOR PRODUCING PROPYLENE GC0011988 2022/11/30 HTML
11 GC 2018-35240 VALVE HAVING PROTECTED, MOVEABLE SEAL AND SEAL ASSEMBLY THEREFOR GC0011987 2022/11/30 HTML
12 GC 2017-34549 METHOD OF COMBATTING INTERFERENCE BY SPATIAL FILTERING OR SPATIO-TEMPORAL FILTERING IN A MULTI-CHANNEL RECEIVER GC0011986 2022/11/30 HTML
13 GC 2017-32861 SEPARATORS AND MIXERS FOR DELIVERING CONTROLLED-QUALITY SOLAR-GENERATED STEAM OVER LONG DISTANCES FOR ENHANCED OIL RECOVERY, AND ASSOCIATED SYSTEMS AND METHODS GC0011985 2022/11/29 HTML
14 GC 2007-18542 PROCESS FOR PROVIDING AN EXTENDED TUBULAR ARTICLE WITH A CORROSION PROTECTION COATING SYSTEM HAVING SELF-REPARING PROPERTIES GC0011984 2022/11/28 HTML
15 GC 2017-33389 HEAT GENERATING CATALYST FOR HYDROCARBONS CRACKING GC0011983 2022/11/28 HTML
16 GC 2014-26658 STABILIZED ACID PRECURSOR AND ACID-ENZYME FORMULATIONS FOR DRILLING MUD CAKE REMOVAL GC0011982 2022/11/28 HTML
17 GC 2015-30490 POLYMER COMPOSITIONS FOR THERMAL SPRAY COATING GC0011981 2022/11/28 HTML
18 GC 2016-32442 A PROCATALYST FOR POLYMERIZATION OF OLEFINS GC0011980 2022/11/28 HTML
19 GC 2016-31738 FERTILIZER COMPOSITION AND METHODS OF MAKING AND USING SAME GC0011979 2022/11/28 HTML
20 GC 2016-32061 CYCLIC AMINES FOR SELECTIVE REMOVAL OF HYDROGEN SULFIDE GC0011978 2022/11/28 HTML
21 GC 2014-26720 SURFACTANTS BASED ON MONOUNSATURATED FATTY ALCOHOL DERIVATIVES GC0011977 2022/11/28 HTML
22 GC 2014-28145 PARTIAL DISCHARGE DETECTION SYSTEM AND METHOD EMPLOYING A SYNTHETIZED SYNCHRONIZATION SIGNAL GC0011976 2022/11/28 HTML
23 GC 2015-28891 REMOVAL OF AROMATIC IMPURITIES FROM AN ALKENE STREAM USING AN ACID CATALYST GC0011975 2022/11/28 HTML
24 GC 2017-34437 CATALYST SYSTEM FOR DEWAXING GC0011974 2022/11/27 HTML
25 GC 2017-33267 AN EBULLATED BED PROCESS FOR HIGH CONVERSION OF HEAVY HYDROCARBONS WITH A LOW SEDIMENT YIELD GC0011973 2022/11/27 HTML
26 GC 2018-34815 SAFETY INTEGRITY LEVEL SIL 3 HIGH-INTEGRITY PROTECTION SYSTEM HIPS FULLY-FUNCTIONAL TEST CONFIGURATION FOR HYDROCARBON GAS PRODUCTION SYSTEMS GC0011972 2022/11/27 HTML
27 GC 2018-34663 VIRTUAL SOURCE REDATUMING USING RADIATION PATTERN CORRECTION GC0011971 2022/11/27 HTML
28 GC 2017-33333 CALCULATING STATIC BOTTOMHOLE PRESSURES FOR DRY AND WET GAS WELLS GC0011970 2022/11/27 HTML
29 GC 2017-33199 SMART HIGH INTEGRITY PROTECTION SYSTEM GC0011969 2022/11/27 HTML
30 GC 2017-33142 AUTOMATED CORE DESCRIPTION GC0011968 2022/11/27 HTML
31 GC 2014-27792 DRILLING FLUID FLOW MEASUREMENT IN AN OPEN CHANNEL FLUID CONDUIT GC0011967 2022/11/24 HTML
32 GC 2015-29994 SPATIAL POSITIONING OF OFFSHORE STRUCTURES GC0011966 2022/11/24 HTML
33 GC 2017-33214 HIGH BUOYANCY COMPOSITE MATERIALS GC0011965 2022/11/24 HTML
34 GC 2018-35934 THREADED CONNECTION FOR OIL WELL GC0011964 2022/11/24 HTML
35 GC 2016-31302 AMUSEMENT MACHINE OF THE PUSHER TYPE GC0011963 2022/11/24 HTML
36 GC 2015-30223 METHODS AND APPARATUSES FOR PRODUCTION OF CARBON, CARBIDE ELECTRODES, AND CARBON COMPOSITIONS GC0011962 2022/11/24 HTML
37 GC 2008-11875 ANTI-IL-6 RECEPTOR ANTIBODY GC0011961 2022/11/22 HTML
38 GC 2016-32645 THREADED CONNECTION FOR PIPE OR TUBE AND METHOD OF PRODUCING THE THREADED CONNECTION FOR PIPE OR TUBE GC0011960 2022/11/22 HTML
39 GC 2013-23386 PURIFICATION OF A HYDROCARBON STREAM GC0011959 2022/11/21 HTML
40 GC 2017-33803 A COBALT- CONTAINING CATALYST COMPOSITION GC0011958 2022/11/21 HTML
41 GC 2016-32460 MAINTENANCE METHOD AND SYSTEM FOR SOLAR RECEIVER GC0011957 2022/11/21 HTML
42 GC 2016-32353 ORIENTATION AND ACTUATION OF PRESSURE-ACTIVATED TOOLS GC0011956 2022/11/21 HTML
43 GC 2018-34818 PIPE HANDLING UNIT GC0011955 2022/11/21 HTML
44 GC 2014-28420 IMPROVED NODE FOR A MULTI-HOP AD HOC NETWORK AND CORRESPONDING METHOD GC0011954 2022/11/20 HTML
45 GC 2014-27921 SEAWATER DESALINATION SYSTEM AND ENERGY RECOVERY APPARATUS GC0011953 2022/11/20 HTML
46 GC 2015-29821 METHODS FOR UTILIZING OLEFIN COKE IN A STEEL MAKING PROCESS AND PRODUCTS MADE THEREFROM GC0011952 2022/11/20 HTML
47 GC 2016-30913 HEAT SOURCE UNIT FOR REFRIGERATION SYSTEM GC0011951 2022/11/20 HTML
48 GC 2018-35951 CATHODIC CORROSION PROTECTION WITH SOLAR PANEL GC0011950 2022/11/20 HTML
49 GC 2008-10684 BUTENE-1 TERPOLYMERS AND PROCESS FOR THEIR PREPARATION GC0011949 2022/11/17 HTML
50 GC 2015-30431 CONSTRUCTION PANEL HAVING IMPROVED FIXING STRENGTH GC0011948 2022/11/17 HTML
12345678910...
العدد:

All Rights Reserved